sensor_id;sensor_type;location;lat;lon;timestamp;temperature;humidity
4566;DHT22;2295;51.050;14.608;2023-02-04T00:01:11;2.50;99.90
4566;DHT22;2295;51.050;14.608;2023-02-04T00:03:41;2.30;99.90
4566;DHT22;2295;51.050;14.608;2023-02-04T00:06:09;2.20;99.90
4566;DHT22;2295;51.050;14.608;2023-02-04T00:08:53;2.10;99.90
4566;DHT22;2295;51.050;14.608;2023-02-04T00:11:22;1.90;99.90
4566;DHT22;2295;51.050;14.608;2023-02-04T00:13:50;1.70;99.90
4566;DHT22;2295;51.050;14.608;2023-02-04T00:16:18;1.50;99.90
4566;DHT22;2295;51.050;14.608;2023-02-04T00:18:48;1.40;99.90
4566;DHT22;2295;51.050;14.608;2023-02-04T00:21:17;1.40;99.90
4566;DHT22;2295;51.050;14.608;2023-02-04T00:23:45;1.40;99.90
4566;DHT22;2295;51.050;14.608;2023-02-04T00:26:13;1.50;99.90
4566;DHT22;2295;51.050;14.608;2023-02-04T00:28:41;1.50;99.90
4566;DHT22;2295;51.050;14.608;2023-02-04T00:31:10;1.40;99.90
4566;DHT22;2295;51.050;14.608;2023-02-04T00:33:38;1.30;99.90
4566;DHT22;2295;51.050;14.608;2023-02-04T00:36:10;1.30;99.90
4566;DHT22;2295;51.050;14.608;2023-02-04T00:38:38;1.30;99.90
4566;DHT22;2295;51.050;14.608;2023-02-04T00:41:06;1.20;99.90
4566;DHT22;2295;51.050;14.608;2023-02-04T00:43:35;1.30;99.90
4566;DHT22;2295;51.050;14.608;2023-02-04T00:46:03;1.20;99.90
4566;DHT22;2295;51.050;14.608;2023-02-04T00:48:32;1.20;99.90
4566;DHT22;2295;51.050;14.608;2023-02-04T00:51:01;1.20;99.90
4566;DHT22;2295;51.050;14.608;2023-02-04T00:53:31;1.20;99.90
4566;DHT22;2295;51.050;14.608;2023-02-04T00:55:59;1.10;99.90
4566;DHT22;2295;51.050;14.608;2023-02-04T00:58:27;1.10;99.90
4566;DHT22;2295;51.050;14.608;2023-02-04T01:00:56;1.00;99.90
4566;DHT22;2295;51.050;14.608;2023-02-04T01:03:24;1.00;99.90
4566;DHT22;2295;51.050;14.608;2023-02-04T01:05:53;0.80;99.90
4566;DHT22;2295;51.050;14.608;2023-02-04T01:08:21;0.70;99.90
4566;DHT22;2295;51.050;14.608;2023-02-04T01:10:51;0.60;99.90
4566;DHT22;2295;51.050;14.608;2023-02-04T01:13:19;0.50;99.90
4566;DHT22;2295;51.050;14.608;2023-02-04T01:15:47;0.50;99.90
4566;DHT22;2295;51.050;14.608;2023-02-04T01:18:15;0.40;99.90
4566;DHT22;2295;51.050;14.608;2023-02-04T01:20:44;0.40;99.90
4566;DHT22;2295;51.050;14.608;2023-02-04T01:23:12;0.30;99.90
4566;DHT22;2295;51.050;14.608;2023-02-04T01:25:40;0.30;99.90
4566;DHT22;2295;51.050;14.608;2023-02-04T01:28:10;0.30;99.90
4566;DHT22;2295;51.050;14.608;2023-02-04T01:30:38;0.30;99.90
4566;DHT22;2295;51.050;14.608;2023-02-04T01:33:07;0.30;99.90
4566;DHT22;2295;51.050;14.608;2023-02-04T01:35:35;0.30;99.90
4566;DHT22;2295;51.050;14.608;2023-02-04T01:38:03;0.30;99.90
4566;DHT22;2295;51.050;14.608;2023-02-04T01:40:32;0.30;99.90
4566;DHT22;2295;51.050;14.608;2023-02-04T01:43:00;0.30;99.90
4566;DHT22;2295;51.050;14.608;2023-02-04T01:45:30;0.30;99.90
4566;DHT22;2295;51.050;14.608;2023-02-04T01:48:01;0.20;99.90
4566;DHT22;2295;51.050;14.608;2023-02-04T01:50:30;0.20;99.90
4566;DHT22;2295;51.050;14.608;2023-02-04T01:53:00;0.30;99.90
4566;DHT22;2295;51.050;14.608;2023-02-04T01:55:31;0.20;99.90
4566;DHT22;2295;51.050;14.608;2023-02-04T01:57:59;0.20;99.90
4566;DHT22;2295;51.050;14.608;2023-02-04T02:00:31;0.20;99.90
4566;DHT22;2295;51.050;14.608;2023-02-04T02:03:01;0.20;99.90
4566;DHT22;2295;51.050;14.608;2023-02-04T02:05:35;0.20;99.90
4566;DHT22;2295;51.050;14.608;2023-02-04T02:08:06;0.20;99.90
4566;DHT22;2295;51.050;14.608;2023-02-04T02:10:36;0.30;99.90
4566;DHT22;2295;51.050;14.608;2023-02-04T02:13:06;0.30;99.90
4566;DHT22;2295;51.050;14.608;2023-02-04T02:15:37;0.30;99.90
4566;DHT22;2295;51.050;14.608;2023-02-04T02:18:05;0.20;99.90
4566;DHT22;2295;51.050;14.608;2023-02-04T02:20:34;0.20;99.90
4566;DHT22;2295;51.050;14.608;2023-02-04T02:23:09;0.20;99.90
4566;DHT22;2295;51.050;14.608;2023-02-04T02:25:40;0.10;99.90
4566;DHT22;2295;51.050;14.608;2023-02-04T02:28:11;0.10;99.90
4566;DHT22;2295;51.050;14.608;2023-02-04T02:30:41;0.10;99.90
4566;DHT22;2295;51.050;14.608;2023-02-04T02:33:11;0.10;99.90
4566;DHT22;2295;51.050;14.608;2023-02-04T02:35:43;0.00;99.90
4566;DHT22;2295;51.050;14.608;2023-02-04T02:38:14;0.00;99.90
4566;DHT22;2295;51.050;14.608;2023-02-04T02:40:45;0.00;99.90
4566;DHT22;2295;51.050;14.608;2023-02-04T02:43:15;0.00;99.90
4566;DHT22;2295;51.050;14.608;2023-02-04T02:45:44;-0.10;99.90
4566;DHT22;2295;51.050;14.608;2023-02-04T02:48:13;-0.10;99.90
4566;DHT22;2295;51.050;14.608;2023-02-04T02:50:42;-0.10;99.90
4566;DHT22;2295;51.050;14.608;2023-02-04T02:53:12;-0.10;99.90
4566;DHT22;2295;51.050;14.608;2023-02-04T02:55:40;-0.20;99.90
4566;DHT22;2295;51.050;14.608;2023-02-04T02:58:14;-0.20;99.90
4566;DHT22;2295;51.050;14.608;2023-02-04T03:00:43;-0.20;99.90
4566;DHT22;2295;51.050;14.608;2023-02-04T03:03:14;-0.20;99.90
4566;DHT22;2295;51.050;14.608;2023-02-04T03:05:46;-0.20;99.90
4566;DHT22;2295;51.050;14.608;2023-02-04T03:08:16;-0.20;99.90
4566;DHT22;2295;51.050;14.608;2023-02-04T03:10:44;-0.20;99.90
4566;DHT22;2295;51.050;14.608;2023-02-04T03:13:15;-0.20;99.90
4566;DHT22;2295;51.050;14.608;2023-02-04T03:15:46;-0.30;99.90
4566;DHT22;2295;51.050;14.608;2023-02-04T03:18:16;-0.30;99.90
4566;DHT22;2295;51.050;14.608;2023-02-04T03:20:47;-0.30;99.90
4566;DHT22;2295;51.050;14.608;2023-02-04T03:23:16;-0.30;99.90
4566;DHT22;2295;51.050;14.608;2023-02-04T03:25:44;-0.30;99.90
4566;DHT22;2295;51.050;14.608;2023-02-04T03:28:15;-0.30;99.90
4566;DHT22;2295;51.050;14.608;2023-02-04T03:30:44;-0.30;99.90
4566;DHT22;2295;51.050;14.608;2023-02-04T03:33:22;-0.30;99.90
4566;DHT22;2295;51.050;14.608;2023-02-04T03:35:52;-0.30;99.90
4566;DHT22;2295;51.050;14.608;2023-02-04T03:38:21;-0.40;99.90
4566;DHT22;2295;51.050;14.608;2023-02-04T03:40:50;-0.30;99.90
4566;DHT22;2295;51.050;14.608;2023-02-04T03:43:20;-0.30;99.90
4566;DHT22;2295;51.050;14.608;2023-02-04T03:45:48;-0.30;99.90
4566;DHT22;2295;51.050;14.608;2023-02-04T03:48:17;-0.40;99.90
4566;DHT22;2295;51.050;14.608;2023-02-04T03:50:46;-0.30;99.90
4566;DHT22;2295;51.050;14.608;2023-02-04T03:53:15;-0.40;99.90
4566;DHT22;2295;51.050;14.608;2023-02-04T03:55:43;-0.40;99.90
4566;DHT22;2295;51.050;14.608;2023-02-04T03:58:12;-0.40;99.90
4566;DHT22;2295;51.050;14.608;2023-02-04T04:00:43;-0.50;99.90
4566;DHT22;2295;51.050;14.608;2023-02-04T04:03:11;-0.60;99.90
4566;DHT22;2295;51.050;14.608;2023-02-04T04:05:40;-0.60;99.90
4566;DHT22;2295;51.050;14.608;2023-02-04T04:08:09;-0.60;99.90
4566;DHT22;2295;51.050;14.608;2023-02-04T04:10:37;-0.60;99.90
4566;DHT22;2295;51.050;14.608;2023-02-04T04:13:08;-0.60;99.90
4566;DHT22;2295;51.050;14.608;2023-02-04T04:15:37;-0.60;99.90
4566;DHT22;2295;51.050;14.608;2023-02-04T04:18:07;-0.60;99.90
4566;DHT22;2295;51.050;14.608;2023-02-04T04:20:35;-0.50;99.90
4566;DHT22;2295;51.050;14.608;2023-02-04T04:23:04;-0.50;99.90
4566;DHT22;2295;51.050;14.608;2023-02-04T04:25:32;-0.50;99.90
4566;DHT22;2295;51.050;14.608;2023-02-04T04:28:01;-0.50;99.90
4566;DHT22;2295;51.050;14.608;2023-02-04T04:30:30;-0.50;99.90
4566;DHT22;2295;51.050;14.608;2023-02-04T04:32:59;-0.50;99.90
4566;DHT22;2295;51.050;14.608;2023-02-04T04:35:30;-0.50;99.90
4566;DHT22;2295;51.050;14.608;2023-02-04T04:37:58;-0.50;99.90
4566;DHT22;2295;51.050;14.608;2023-02-04T04:40:27;-0.50;99.90
4566;DHT22;2295;51.050;14.608;2023-02-04T04:42:55;-0.50;99.90
4566;DHT22;2295;51.050;14.608;2023-02-04T04:45:24;-0.50;99.90
4566;DHT22;2295;51.050;14.608;2023-02-04T04:47:52;-0.50;99.90
4566;DHT22;2295;51.050;14.608;2023-02-04T04:50:21;-0.50;99.90
4566;DHT22;2295;51.050;14.608;2023-02-04T04:52:51;-0.50;99.90
4566;DHT22;2295;51.050;14.608;2023-02-04T04:55:19;-0.50;99.90
4566;DHT22;2295;51.050;14.608;2023-02-04T04:57:48;-0.50;99.90
4566;DHT22;2295;51.050;14.608;2023-02-04T05:00:18;-0.50;99.90
4566;DHT22;2295;51.050;14.608;2023-02-04T05:02:48;-0.50;99.90
4566;DHT22;2295;51.050;14.608;2023-02-04T05:05:16;-0.50;99.90
4566;DHT22;2295;51.050;14.608;2023-02-04T05:07:45;-0.50;99.90
4566;DHT22;2295;51.050;14.608;2023-02-04T05:10:15;-0.50;99.90
4566;DHT22;2295;51.050;14.608;2023-02-04T05:12:44;-0.50;99.90
4566;DHT22;2295;51.050;14.608;2023-02-04T05:15:13;-0.50;99.90
4566;DHT22;2295;51.050;14.608;2023-02-04T05:17:41;-0.50;99.90
4566;DHT22;2295;51.050;14.608;2023-02-04T05:20:10;-0.50;99.90
4566;DHT22;2295;51.050;14.608;2023-02-04T05:22:39;-0.60;99.90
4566;DHT22;2295;51.050;14.608;2023-02-04T05:25:08;-0.60;99.90
4566;DHT22;2295;51.050;14.608;2023-02-04T05:27:38;-0.50;99.90
4566;DHT22;2295;51.050;14.608;2023-02-04T05:30:08;-0.60;99.90
4566;DHT22;2295;51.050;14.608;2023-02-04T05:32:37;-0.50;99.90
4566;DHT22;2295;51.050;14.608;2023-02-04T05:35:07;-0.60;99.90
4566;DHT22;2295;51.050;14.608;2023-02-04T05:37:35;-0.60;99.90
4566;DHT22;2295;51.050;14.608;2023-02-04T05:40:04;-0.60;99.90
4566;DHT22;2295;51.050;14.608;2023-02-04T05:42:33;-0.60;99.90
4566;DHT22;2295;51.050;14.608;2023-02-04T05:45:03;-0.70;99.90
4566;DHT22;2295;51.050;14.608;2023-02-04T05:47:31;-0.70;99.90
4566;DHT22;2295;51.050;14.608;2023-02-04T05:50:00;-0.80;99.90
4566;DHT22;2295;51.050;14.608;2023-02-04T05:52:28;-1.00;99.90
4566;DHT22;2295;51.050;14.608;2023-02-04T05:54:57;-1.00;99.90
4566;DHT22;2295;51.050;14.608;2023-02-04T05:57:25;-1.10;99.90
4566;DHT22;2295;51.050;14.608;2023-02-04T05:59:54;-1.10;99.90
4566;DHT22;2295;51.050;14.608;2023-02-04T10:33:10;1.60;99.90
4566;DHT22;2295;51.050;14.608;2023-02-04T10:36:14;1.70;99.90
4566;DHT22;2295;51.050;14.608;2023-02-04T10:39:26;1.90;99.90
4566;DHT22;2295;51.050;14.608;2023-02-04T10:42:22;2.10;99.90
4566;DHT22;2295;51.050;14.608;2023-02-04T15:48:57;-0.60;99.90
4566;DHT22;2295;51.050;14.608;2023-02-04T17:50:17;-0.60;99.90
4566;DHT22;2295;51.050;14.608;2023-02-04T17:53:25;-0.70;99.90
4566;DHT22;2295;51.050;14.608;2023-02-04T17:57:20;-0.60;99.90
4566;DHT22;2295;51.050;14.608;2023-02-04T18:24:13;-0.90;99.90
4566;DHT22;2295;51.050;14.608;2023-02-04T18:57:57;-1.30;99.90
4566;DHT22;2295;51.050;14.608;2023-02-04T19:25:46;-1.80;99.90
4566;DHT22;2295;51.050;14.608;2023-02-04T19:36:01;-1.90;99.90
4566;DHT22;2295;51.050;14.608;2023-02-04T19:40:36;-1.80;99.90
4566;DHT22;2295;51.050;14.608;2023-02-04T19:53:50;-1.80;99.90
4566;DHT22;2295;51.050;14.608;2023-02-04T19:56:54;-1.90;99.90
4566;DHT22;2295;51.050;14.608;2023-02-04T20:00:34;-1.90;99.90
4566;DHT22;2295;51.050;14.608;2023-02-04T20:09:17;-2.00;99.90
4566;DHT22;2295;51.050;14.608;2023-02-04T20:12:47;-2.00;99.90
4566;DHT22;2295;51.050;14.608;2023-02-04T20:16:28;-2.00;99.90
4566;DHT22;2295;51.050;14.608;2023-02-04T20:19:50;-2.10;99.90
4566;DHT22;2295;51.050;14.608;2023-02-04T20:31:48;-2.10;99.90
4566;DHT22;2295;51.050;14.608;2023-02-04T20:38:33;-2.10;99.90
4566;DHT22;2295;51.050;14.608;2023-02-04T20:48:39;-2.20;99.90
4566;DHT22;2295;51.050;14.608;2023-02-04T20:54:34;-2.30;99.90
4566;DHT22;2295;51.050;14.608;2023-02-04T20:57:48;-2.40;99.90
4566;DHT22;2295;51.050;14.608;2023-02-04T21:14:56;-2.60;99.90
4566;DHT22;2295;51.050;14.608;2023-02-04T21:18:05;-2.60;99.90
4566;DHT22;2295;51.050;14.608;2023-02-04T21:21:14;-2.70;99.90
4566;DHT22;2295;51.050;14.608;2023-02-04T21:26:44;-3.10;99.90
4566;DHT22;2295;51.050;14.608;2023-02-04T21:29:21;-3.10;99.90
4566;DHT22;2295;51.050;14.608;2023-02-04T22:19:16;-4.20;99.90
4566;DHT22;2295;51.050;14.608;2023-02-04T22:24:36;-4.30;99.90
4566;DHT22;2295;51.050;14.608;2023-02-04T22:27:14;-4.20;99.90
4566;DHT22;2295;51.050;14.608;2023-02-04T22:32:40;-4.40;99.90
4566;DHT22;2295;51.050;14.608;2023-02-04T22:39:46;-4.40;99.90
4566;DHT22;2295;51.050;14.608;2023-02-04T22:42:19;-4.50;99.90
4566;DHT22;2295;51.050;14.608;2023-02-04T22:51:03;-4.50;99.90
4566;DHT22;2295;51.050;14.608;2023-02-04T22:59:26;-4.60;99.90
4566;DHT22;2295;51.050;14.608;2023-02-04T23:02:59;-4.70;99.90
4566;DHT22;2295;51.050;14.608;2023-02-04T23:13:11;-4.70;99.90
4566;DHT22;2295;51.050;14.608;2023-02-04T23:29:25;-5.10;99.90
4566;DHT22;2295;51.050;14.608;2023-02-04T23:35:12;-5.30;99.90
4566;DHT22;2295;51.050;14.608;2023-02-04T23:38:25;-5.40;99.90
4566;DHT22;2295;51.050;14.608;2023-02-04T23:44:22;-5.60;99.90
4566;DHT22;2295;51.050;14.608;2023-02-04T23:47:54;-5.60;99.90
4566;DHT22;2295;51.050;14.608;2023-02-04T23:50:37;-5.50;99.90
4566;DHT22;2295;51.050;14.608;2023-02-04T23:53:32;-5.40;99.90
4566;DHT22;2295;51.050;14.608;2023-02-04T23:56:39;-5.50;99.90
